Portada
METAR-TAF:

METAR-TAF

Aeroports :

Aeroport Internacional Elefthérios Venizelos

Atenes, Grècia

latitud: 37-56N, longitud: 023-56E, altitud: 94 m

Observació

L'informe es va fer fa 29 minuts, a les 19:20 UTC
Vent 16 kt del Nord amb ràfegues de 26 kt
Temperatura 13°C
Humitat 58%
Pressió 1025 hPa
Visibilitat 10 km o més
Escasses núvols a una alçada de 3000 ft

METAR: LGAV 211920Z 01016G26KT 9999 FEW030 13/05 Q1025 NOSIG

Hora: 21:49 (19:49 UTC)

Pronòstic

L'informe es va fer fa 2 hores i 49 minuts, a les 17:00 UTC
Pronòstic vàlid del 21 a les 18 UTC al 22 a les 18 UTC
Vent 20 kt del Nord amb ràfegues de 30 kt
Visibilitat 10 km o més
Escasses núvols a una alçada de 3000 ft

TAF: LGAV 211700Z 2118/2218 01020G30KT 9999 FEW030

Observacions i pronòstics meteorològics de més de 4000 aeroports (METAR i TAF).

Les estacions disponibles són els punts grocs i vermells al mapa.

Posi el ratolí al punt desitjat per veure el nom de l'estació.

Feu clic per veure les observacions i els pronòstics meteorològics.

Per canviar el mapa: feu clic els botons verds amb una creu de color negre per apropar; al botó verd amb un guió per allunyar la imatge; o en les fletxes verdes per a mapes adjacents.


METAR-TAF: